Time;durP1;ratioP1;P1;durP2;ratioP2;P2;SDS_P1;SDS_P2;PMS_P1;PMS_P2;Temp;Humidity;BMP_temperature;BMP_pressure;BME280_temperature;BME280_humidity;BME280_pressure;Samples;Min_cycle;Max_cycle;Signal;HPM_P1;HPM_P2
2022/05/13 00:00:12;;;;;;;5.72;3.78;;;;;;;23.89;52.41;100975.28;4968637;28;20026;-65
2022/05/13 00:02:38;;;;;;;3.75;2.88;;;;;;;23.89;52.40;100977.94;4958970;28;20457;-63
2022/05/13 00:05:05;;;;;;;4.68;3.53;;;;;;;23.89;52.13;100969.97;4950229;28;20440;-64
2022/05/13 00:07:31;;;;;;;5.30;3.58;;;;;;;23.88;52.24;100973.66;4950862;28;20054;-63
2022/05/13 00:09:57;;;;;;;6.00;3.33;;;;;;;23.87;51.92;100959.53;4969673;28;20034;-62
2022/05/13 00:12:24;;;;;;;3.78;3.45;;;;;;;23.88;51.82;100952.38;4963173;28;20193;-63
2022/05/13 00:14:52;;;;;;;3.80;3.15;;;;;;;23.87;52.09;100961.38;4957557;28;20505;-63
2022/05/13 00:17:18;;;;;;;4.03;3.20;;;;;;;23.86;52.19;100949.94;4958979;28;20031;-64
2022/05/13 00:19:44;;;;;;;5.25;3.35;;;;;;;23.86;51.81;100947.25;4962787;28;20038;-62
2022/05/13 00:22:10;;;;;;;4.10;3.60;;;;;;;23.85;51.81;100937.66;4951507;28;20031;-63
2022/05/13 00:24:35;;;;;;;3.78;3.47;;;;;;;23.85;51.98;100942.97;4963670;28;20126;-63
2022/05/13 00:27:02;;;;;;;3.88;3.58;;;;;;;23.85;51.94;100939.50;4957751;28;20535;-64
2022/05/13 00:29:27;;;;;;;3.67;3.33;;;;;;;23.83;51.95;100943.19;4965232;28;20811;-62
2022/05/13 00:31:53;;;;;;;3.78;3.47;;;;;;;23.82;51.68;100938.91;4966521;28;20118;-63
2022/05/13 00:34:19;;;;;;;4.70;3.55;;;;;;;23.82;51.58;100938.09;4968247;28;20582;-63
2022/05/13 00:36:45;;;;;;;3.53;3.10;;;;;;;23.81;51.89;100936.47;4966280;28;20027;-63
2022/05/13 00:39:10;;;;;;;3.53;3.33;;;;;;;23.80;51.80;100935.66;4960294;28;20071;-62
2022/05/13 00:41:36;;;;;;;4.00;3.28;;;;;;;23.80;51.55;100929.53;4961301;28;20031;-65
2022/05/13 00:44:02;;;;;;;5.03;3.55;;;;;;;23.79;51.87;100928.69;4963890;28;20031;-64
2022/05/13 00:46:29;;;;;;;3.20;2.67;;;;;;;23.79;51.62;100933.22;4967087;28;20075;-63
2022/05/13 00:48:57;;;;;;;3.70;3.40;;;;;;;23.78;51.51;100929.75;4957645;28;20050;-62
2022/05/13 00:51:29;;;;;;;3.28;2.90;;;;;;;23.77;51.45;100924.63;4953998;28;20047;-63
2022/05/13 00:53:55;;;;;;;4.85;3.35;;;;;;;23.78;51.77;100920.94;4958202;28;20370;-62
2022/05/13 00:56:22;;;;;;;3.20;2.90;;;;;;;23.77;51.68;100921.97;4954871;28;20027;-64
2022/05/13 00:58:51;;;;;;;3.60;2.92;;;;;;;23.77;51.65;100916.66;4999446;22;20064;-73
2022/05/13 01:01:17;;;;;;;3.92;3.20;;;;;;;23.77;51.53;100924.63;5007022;28;20093;-73
2022/05/13 01:03:44;;;;;;;3.95;2.58;;;;;;;23.77;51.45;100929.97;5014310;28;20037;-72
2022/05/13 01:06:14;;;;;;;6.10;3.35;;;;;;;23.77;51.42;100924.63;5009712;28;20148;-73
2022/05/13 01:08:40;;;;;;;3.30;3.10;;;;;;;23.76;51.65;100918.50;5011064;28;20501;-73
2022/05/13 01:11:11;;;;;;;3.10;2.50;;;;;;;23.77;51.81;100920.13;5007930;28;20033;-71
2022/05/13 01:13:37;;;;;;;3.33;2.85;;;;;;;23.77;51.57;100919.31;5008383;28;20046;-71
2022/05/13 01:16:03;;;;;;;3.75;3.33;;;;;;;23.78;51.59;100920.94;5015242;28;20111;-71
2022/05/13 01:18:33;;;;;;;3.15;2.70;;;;;;;23.78;51.63;100919.09;5031762;28;20103;-72
2022/05/13 01:20:59;;;;;;;3.97;3.58;;;;;;;23.78;51.54;100908.44;5012410;28;20584;-73
2022/05/13 01:23:30;;;;;;;5.63;2.92;;;;;;;23.80;51.73;100913.56;5009636;28;20030;-72
2022/05/13 01:26:02;;;;;;;3.72;3.28;;;;;;;23.78;51.79;100905.78;5018289;28;20037;-73
2022/05/13 01:28:30;;;;;;;3.78;2.63;;;;;;;23.80;51.49;100905.56;5013607;28;20034;-71
2022/05/13 01:30:59;;;;;;;3.85;3.25;;;;;;;23.79;51.55;100903.94;5010847;28;20034;-73
2022/05/13 01:33:25;;;;;;;3.55;3.25;;;;;;;23.79;51.89;100901.28;5008595;28;20125;-72
2022/05/13 01:35:53;;;;;;;3.50;3.20;;;;;;;23.80;51.77;100906.38;5030941;28;20022;-71
2022/05/13 01:38:22;;;;;;;4.97;3.40;;;;;;;23.79;51.80;100907.41;5029441;28;20040;-72
2022/05/13 01:40:47;;;;;;;3.28;2.97;;;;;;;23.79;51.37;100906.59;5019982;28;20393;-74
2022/05/13 01:43:13;;;;;;;3.58;2.95;;;;;;;23.78;51.69;100900.47;5010968;28;20038;-72
2022/05/13 01:45:39;;;;;;;3.47;2.90;;;;;;;23.77;51.79;100903.34;5014119;28;20026;-73
2022/05/13 01:48:06;;;;;;;2.75;2.55;;;;;;;23.76;51.57;100902.53;5030891;28;20417;-73
2022/05/13 01:50:32;;;;;;;5.07;2.70;;;;;;;23.77;51.68;100903.34;5021640;28;20040;-73
2022/05/13 01:52:58;;;;;;;3.25;2.95;;;;;;;23.76;51.68;100904.38;5025317;28;20107;-72
2022/05/13 01:55:23;;;;;;;3.25;2.47;;;;;;;23.75;51.72;100906.22;5010344;28;20069;-73
2022/05/13 01:57:50;;;;;;;3.20;2.80;;;;;;;23.74;51.44;100903.78;5019708;28;20038;-74
2022/05/13 02:00:16;;;;;;;3.72;3.20;;;;;;;23.73;51.89;100905.63;5009278;28;20546;-74
2022/05/13 02:05:26;;;;;;;3.53;2.95;;;;;;;23.72;51.90;100900.53;5009258;28;20433;-73
2022/05/13 02:07:52;;;;;;;2.92;2.70;;;;;;;23.73;51.59;100896.84;4998885;28;20027;-74
2022/05/13 02:10:19;;;;;;;3.25;2.95;;;;;;;23.72;51.48;100901.34;5015638;28;20073;-72
2022/05/13 02:12:44;;;;;;;2.65;2.45;;;;;;;23.73;51.56;100891.53;5004381;28;20122;-72
2022/05/13 02:15:10;;;;;;;3.20;2.88;;;;;;;23.73;51.30;100880.88;5013863;28;20109;-74
2022/05/13 02:17:36;;;;;;;3.55;3.22;;;;;;;23.72;51.50;100890.72;5008000;28;20462;-72
2022/05/13 02:20:04;;;;;;;3.83;3.13;;;;;;;23.72;51.37;100882.72;5008005;28;20100;-72
2022/05/13 02:22:29;;;;;;;3.13;2.80;;;;;;;23.72;51.48;100885.38;5011864;28;20049;-73
2022/05/13 02:24:55;;;;;;;3.10;2.72;;;;;;;23.72;51.41;100879.25;5008641;28;20080;-73
2022/05/13 02:27:20;;;;;;;3.55;3.25;;;;;;;23.72;51.65;100879.25;5017938;28;20029;-73
2022/05/13 02:29:46;;;;;;;3.58;2.80;;;;;;;23.71;51.24;100870.47;5008184;28;20049;-71
2022/05/13 02:32:11;;;;;;;3.28;2.90;;;;;;;23.71;51.10;100867.00;5006489;28;20030;-72
2022/05/13 02:34:37;;;;;;;4.57;2.78;;;;;;;23.70;51.25;100870.69;5013675;28;20029;-73
2022/05/13 02:37:03;;;;;;;2.72;2.42;;;;;;;23.70;51.21;100866.19;5008530;28;20033;-73
2022/05/13 02:39:29;;;;;;;2.78;2.58;;;;;;;23.68;51.58;100867.44;5027410;28;20025;-73
2022/05/13 02:41:54;;;;;;;4.63;2.70;;;;;;;23.69;51.17;100866.41;5006756;28;20088;-72
2022/05/13 02:44:21;;;;;;;4.45;3.13;;;;;;;23.67;51.68;100866.63;5007526;28;20041;-74
2022/05/13 02:46:47;;;;;;;4.15;2.13;;;;;;;23.67;51.29;100866.63;5013509;28;20577;-72
2022/05/13 02:49:13;;;;;;;3.30;2.92;;;;;;;23.66;51.38;100867.66;5012357;28;20061;-71
2022/05/13 02:51:40;;;;;;;5.60;2.70;;;;;;;23.66;51.51;100865.00;5009111;28;20206;-71
2022/05/13 02:54:05;;;;;;;5.22;3.67;;;;;;;23.65;51.77;100862.53;5004617;28;20088;-72
2022/05/13 02:56:31;;;;;;;3.38;2.95;;;;;;;23.65;51.20;100858.03;5009030;28;20030;-74
2022/05/13 02:58:56;;;;;;;3.88;2.78;;;;;;;23.67;51.52;100863.13;5006893;28;20496;-74
2022/05/13 03:01:22;;;;;;;5.43;3.28;;;;;;;23.66;51.41;100858.84;5008207;28;20053;-73
2022/05/13 03:03:49;;;;;;;3.05;2.80;;;;;;;23.68;51.45;100864.78;5008284;28;20033;-74
2022/05/13 03:06:14;;;;;;;4.15;2.70;;;;;;;23.67;51.20;100855.97;5018215;28;20516;-73
2022/05/13 03:08:40;;;;;;;2.53;2.33;;;;;;;23.68;51.26;100862.09;5017253;28;20025;-72
2022/05/13 03:11:07;;;;;;;3.35;3.05;;;;;;;23.68;51.14;100859.44;5011948;28;20216;-72
2022/05/13 03:13:33;;;;;;;3.67;3.38;;;;;;;23.68;51.51;100862.09;5005874;28;20045;-72
2022/05/13 03:16:08;;;;;;;3.50;2.45;;;;;;;23.67;50.89;100860.47;5001633;28;20026;-74
2022/05/13 03:18:33;;;;;;;3.08;2.35;;;;;;;23.67;51.11;100852.50;5006613;28;20076;-74
2022/05/13 03:20:59;;;;;;;3.13;2.65;;;;;;;23.68;50.79;100856.78;5003783;28;20081;-74
2022/05/13 03:23:25;;;;;;;5.75;2.88;;;;;;;23.69;50.85;100858.41;5008091;28;20040;-74
2022/05/13 03:25:50;;;;;;;3.30;2.15;;;;;;;23.69;50.89;100853.09;5020847;28;20041;-72
2022/05/13 03:28:16;;;;;;;3.83;2.13;;;;;;;23.69;50.73;100851.25;5023803;28;20320;-71
2022/05/13 03:30:41;;;;;;;2.42;2.20;;;;;;;23.68;50.61;100854.94;5007736;28;20030;-72
2022/05/13 03:33:06;;;;;;;3.33;2.15;;;;;;;23.68;50.62;100851.47;5019227;28;20029;-73
2022/05/13 03:35:32;;;;;;;3.53;2.50;;;;;;;23.68;50.89;100846.16;5006719;28;20026;-74
2022/05/13 03:37:57;;;;;;;4.07;2.42;;;;;;;23.67;50.49;100852.50;5016565;28;20038;-72
2022/05/13 03:40:23;;;;;;;2.38;2.17;;;;;;;23.67;50.49;100857.81;5010867;28;20038;-73
2022/05/13 03:42:49;;;;;;;2.50;2.28;;;;;;;23.66;50.83;100853.53;5014008;28;20040;-72
2022/05/13 03:45:17;;;;;;;5.05;2.55;;;;;;;23.64;50.43;100850.28;5007011;28;20053;-73
2022/05/13 03:47:44;;;;;;;2.53;2.33;;;;;;;23.64;50.70;100856.41;5009272;28;20029;-72
2022/05/13 03:50:11;;;;;;;3.95;2.42;;;;;;;23.64;50.28;100860.91;5015726;28;20029;-72
2022/05/13 03:52:36;;;;;;;5.93;2.40;;;;;;;23.64;50.69;100860.91;5025903;28;20049;-72
2022/05/13 03:55:05;;;;;;;4.20;2.58;;;;;;;23.63;50.22;100859.31;5007218;28;20029;-72
2022/05/13 03:57:31;;;;;;;4.85;2.63;;;;;;;23.59;50.62;100869.59;5004757;28;20113;-74
2022/05/13 03:59:57;;;;;;;3.08;2.78;;;;;;;23.56;50.57;100858.56;5003611;28;20121;-73
2022/05/13 04:02:24;;;;;;;5.70;3.60;;;;;;;23.50;50.21;100861.03;5004513;28;20109;-74
2022/05/13 04:10:17;;;;;;;4.18;2.78;;;;;;;23.23;49.69;100862.31;5015312;28;20043;-74
2022/05/13 04:18:11;;;;;;;4.57;2.20;;;;;;;23.35;50.09;100868.53;5000976;28;20064;-71
2022/05/13 04:20:36;;;;;;;2.80;2.13;;;;;;;23.38;50.51;100873.44;5007462;28;20466;-72
2022/05/13 04:23:03;;;;;;;2.40;2.20;;;;;;;23.42;50.09;100868.50;5019630;28;20037;-72
2022/05/13 04:25:28;;;;;;;3.10;1.88;;;;;;;23.43;50.18;100876.25;5006878;28;20037;-73
2022/05/13 04:27:54;;;;;;;3.97;2.60;;;;;;;23.45;50.21;100873.38;5006074;28;20494;-74
2022/05/13 04:30:20;;;;;;;4.00;1.90;;;;;;;23.45;50.00;100873.38;5008860;28;20109;-72
2022/05/13 04:32:45;;;;;;;3.60;2.15;;;;;;;23.47;49.88;100876.63;5006460;28;20051;-74
2022/05/13 04:35:11;;;;;;;3.67;2.30;;;;;;;23.47;49.89;100881.94;5007526;28;20509;-72
2022/05/13 04:37:38;;;;;;;4.32;2.70;;;;;;;23.46;50.31;100878.47;5001165;28;20452;-74
2022/05/13 04:40:04;;;;;;;3.55;2.00;;;;;;;23.48;50.20;100889.69;5001239;28;20034;-72
2022/05/13 04:45:13;;;;;;;5.05;3.55;;;;;;;23.53;50.94;100886.41;5003112;28;20049;-72
2022/05/13 04:50:23;;;;;;;4.85;3.13;;;;;;;23.58;51.88;100893.75;5002739;28;20082;-71
2022/05/13 04:52:48;;;;;;;5.05;2.72;;;;;;;23.58;51.95;100896.41;5007363;28;20141;-72
2022/05/13 04:55:14;;;;;;;4.85;3.15;;;;;;;23.58;52.04;100888.44;5021956;28;20041;-72
2022/05/13 04:57:39;;;;;;;3.80;2.50;;;;;;;23.61;52.42;100896.78;5008104;28;20713;-71
2022/05/13 05:00:07;;;;;;;6.95;3.65;;;;;;;23.62;52.34;100901.06;4996122;28;20050;-72
2022/05/13 05:02:33;;;;;;;6.82;4.60;;;;;;;23.64;52.08;100900.81;5005891;28;20121;-72
2022/05/13 05:04:59;;;;;;;6.38;3.75;;;;;;;23.62;51.89;100893.09;5005805;28;20221;-72
2022/05/13 05:07:24;;;;;;;8.77;3.50;;;;;;;23.63;51.69;100888.59;5007987;28;20022;-72
2022/05/13 05:09:49;;;;;;;3.70;3.30;;;;;;;23.62;51.58;100897.59;5006932;28;20045;-72
2022/05/13 05:12:15;;;;;;;6.40;3.00;;;;;;;23.61;51.18;100898.63;5003141;28;21213;-71
2022/05/13 05:14:41;;;;;;;5.22;2.42;;;;;;;23.60;50.80;100899.66;5006510;28;20029;-72
2022/05/13 05:17:06;;;;;;;7.65;2.83;;;;;;;23.58;51.03;100899.06;5000464;28;20088;-72
2022/05/13 05:19:31;;;;;;;3.88;3.05;;;;;;;23.55;50.68;100899.50;5013769;28;20056;-73
2022/05/13 05:21:57;;;;;;;4.15;3.08;;;;;;;23.54;50.91;100900.53;5012660;28;20021;-72
2022/05/13 05:24:22;;;;;;;9.95;2.47;;;;;;;23.50;50.42;100897.47;5024830;28;20031;-72
2022/05/13 05:26:48;;;;;;;4.88;2.67;;;;;;;23.48;50.15;100904.84;5026346;28;20382;-72
2022/05/13 05:29:13;;;;;;;5.05;2.50;;;;;;;23.46;50.46;100910.38;5004106;28;20091;-72
2022/05/13 05:31:39;;;;;;;5.28;2.00;;;;;;;23.46;50.29;100912.22;5008103;28;20026;-72
2022/05/13 05:34:05;;;;;;;4.43;3.10;;;;;;;23.45;50.20;100914.06;5005353;28;20033;-72
2022/05/13 05:36:31;;;;;;;4.78;2.70;;;;;;;23.45;49.98;100919.38;5006117;28;20030;-72
2022/05/13 05:38:56;;;;;;;5.20;2.85;;;;;;;23.46;50.24;100915.69;5003293;28;20026;-72
2022/05/13 05:41:22;;;;;;;6.38;2.65;;;;;;;23.46;49.72;100912.22;5011691;28;20409;-72
2022/05/13 05:43:48;;;;;;;2.88;2.42;;;;;;;23.45;49.73;100908.75;5005605;28;20595;-72
2022/05/13 05:46:13;;;;;;;5.93;2.40;;;;;;;23.46;49.68;100902.41;5011250;28;20504;-72
2022/05/13 05:48:39;;;;;;;2.65;1.88;;;;;;;23.44;49.55;100912.44;5009685;28;20053;-72
2022/05/13 05:51:04;;;;;;;3.85;2.50;;;;;;;23.46;49.27;100917.53;5005737;28;20069;-72
2022/05/13 05:59:02;;;;;;;9.80;2.50;;;;;;;23.42;50.83;100924.31;5013195;28;20061;-72
2022/05/13 06:01:28;;;;;;;5.18;2.40;;;;;;;23.43;51.10;100923.28;5020490;28;20030;-71
2022/05/13 06:03:54;;;;;;;10.57;2.55;;;;;;;23.41;50.58;100926.16;5009461;28;20142;-71
2022/05/13 06:06:19;;;;;;;3.30;2.60;;;;;;;23.40;50.00;100921.06;5006343;28;20398;-70
2022/05/13 06:08:46;;;;;;;5.32;2.75;;;;;;;23.40;50.26;100927.19;5011108;28;20029;-71
2022/05/13 06:11:11;;;;;;;7.72;2.50;;;;;;;23.40;50.34;100927.19;5007608;28;20501;-71
2022/05/13 06:13:37;;;;;;;13.38;3.30;;;;;;;23.41;50.62;100930.69;5013335;28;20363;-71
2022/05/13 06:16:04;;;;;;;7.05;2.25;;;;;;;23.43;50.64;100924.09;5010272;28;20544;-72
2022/05/13 06:18:29;;;;;;;5.15;2.50;;;;;;;23.43;50.46;100929.44;5008343;28;20114;-71
2022/05/13 06:20:55;;;;;;;7.18;2.35;;;;;;;23.44;50.69;100931.06;5007905;28;20139;-73
2022/05/13 06:23:20;;;;;;;2.67;2.03;;;;;;;23.44;50.66;100924.91;5015277;28;20420;-72
2022/05/13 06:25:45;;;;;;;5.00;2.92;;;;;;;23.44;50.84;100915.09;5008339;28;20541;-71
2022/05/13 06:28:11;;;;;;;8.90;3.20;;;;;;;23.44;51.09;100919.59;5007052;28;20064;-71
2022/05/13 06:30:36;;;;;;;8.52;3.05;;;;;;;23.46;51.69;100929.00;5001638;28;20056;-72
2022/05/13 06:33:02;;;;;;;8.52;3.28;;;;;;;23.48;51.44;100931.44;5009366;28;20041;-71
2022/05/13 06:35:30;;;;;;;3.25;2.28;;;;;;;23.47;51.23;100930.63;5008315;28;20072;-72
2022/05/13 06:37:56;;;;;;;6.35;3.08;;;;;;;23.51;51.37;100933.66;5008134;28;20034;-71
2022/05/13 06:40:22;;;;;;;5.13;3.17;;;;;;;23.50;50.97;100940.81;5007871;28;20022;-72
2022/05/13 06:42:49;;;;;;;3.97;2.53;;;;;;;23.51;50.61;100944.28;5008018;28;20030;-72
2022/05/13 06:45:15;;;;;;;5.38;2.13;;;;;;;23.45;49.65;100948.63;5003101;28;20040;-73
2022/05/13 06:47:40;;;;;;;5.75;1.98;;;;;;;23.43;49.74;100944.56;5004256;28;20022;-72
2022/05/13 06:50:10;;;;;;;3.65;2.20;;;;;;;23.39;49.27;100938.88;4996898;28;20292;-72
2022/05/13 06:52:36;;;;;;;3.72;2.10;;;;;;;23.38;49.32;100949.72;5006992;28;20025;-72
2022/05/13 06:55:02;;;;;;;5.95;2.28;;;;;;;23.34;49.51;100946.69;5005333;28;20036;-73
2022/05/13 06:57:28;;;;;;;5.75;2.45;;;;;;;23.28;49.31;100947.53;5005589;28;20034;-74
2022/05/13 06:59:54;;;;;;;3.83;2.45;;;;;;;23.23;49.38;100944.72;5006351;28;20050;-73
2022/05/13 07:02:21;;;;;;;6.10;2.80;;;;;;;23.20;49.38;100945.13;4999698;28;20433;-74
2022/05/13 07:04:47;;;;;;;9.30;2.50;;;;;;;23.21;49.89;100944.13;5007412;28;20580;-73
2022/05/13 07:07:14;;;;;;;6.78;2.55;;;;;;;23.20;49.68;100944.31;5007509;28;20049;-72
2022/05/13 07:09:40;;;;;;;4.13;2.20;;;;;;;23.18;50.09;100945.34;4996028;28;20446;-73
2022/05/13 07:12:07;;;;;;;6.35;2.75;;;;;;;23.18;50.07;100941.88;5005143;28;20026;-72
2022/05/13 07:14:34;;;;;;;8.55;2.92;;;;;;;23.18;50.42;100940.03;5004582;28;20403;-72
2022/05/13 07:17:00;;;;;;;5.20;2.90;;;;;;;23.23;50.29;100938.59;5008241;28;20115;-72
2022/05/13 07:19:25;;;;;;;12.50;2.17;;;;;;;23.26;50.10;100933.66;5008938;28;20037;-72
2022/05/13 07:21:52;;;;;;;6.18;2.35;;;;;;;23.28;50.16;100931.59;5009674;28;20030;-72
2022/05/13 07:24:17;;;;;;;5.13;2.25;;;;;;;23.28;50.25;100928.94;5009710;28;20052;-72
2022/05/13 07:26:43;;;;;;;6.57;2.53;;;;;;;23.29;50.46;100937.72;5007115;28;20380;-72
2022/05/13 07:29:09;;;;;;;2.15;1.70;;;;;;;23.29;50.68;100932.41;5009351;28;20029;-71
2022/05/13 07:31:35;;;;;;;4.53;1.90;;;;;;;23.30;50.35;100929.53;5009021;28;20189;-72
2022/05/13 07:34:01;;;;;;;4.88;2.40;;;;;;;23.30;50.30;100934.84;5008108;28;20030;-72
2022/05/13 07:36:26;;;;;;;4.55;2.90;;;;;;;23.30;50.28;100934.84;5009493;28;20687;-72
2022/05/13 07:41:36;;;;;;;4.32;2.10;;;;;;;23.30;50.45;100934.03;5009456;28;20056;-73
2022/05/13 07:44:02;;;;;;;3.72;2.13;;;;;;;23.31;50.29;100935.66;5007674;28;20030;-72
2022/05/13 07:46:27;;;;;;;3.60;2.00;;;;;;;23.31;50.38;100936.47;5009453;28;20044;-72
2022/05/13 07:48:53;;;;;;;3.15;1.65;;;;;;;23.33;49.91;100930.94;5008407;28;20026;-72
2022/05/13 07:51:18;;;;;;;5.10;1.90;;;;;;;23.32;49.96;100927.47;5009104;28;20028;-72
2022/05/13 07:53:44;;;;;;;3.45;2.00;;;;;;;23.33;50.04;100939.72;5009091;28;20088;-72
2022/05/13 07:56:11;;;;;;;1.75;1.55;;;;;;;23.34;50.05;100930.72;5003940;28;20485;-71
2022/05/13 07:58:36;;;;;;;3.90;1.63;;;;;;;23.34;50.29;100920.09;5007762;28;20520;-73
2022/05/13 08:01:03;;;;;;;3.85;1.83;;;;;;;23.34;50.20;100928.06;5006618;28;20034;-71
2022/05/13 08:03:30;;;;;;;5.70;1.92;;;;;;;23.35;50.00;100919.06;5023875;28;20048;-71
2022/05/13 08:06:02;;;;;;;5.63;1.95;;;;;;;23.35;50.06;100919.06;4994980;28;20477;-72
2022/05/13 08:08:31;;;;;;;3.78;1.83;;;;;;;23.36;49.88;100912.72;5015551;28;20389;-72
2022/05/13 08:11:00;;;;;;;7.75;2.10;;;;;;;23.37;49.74;100914.34;5013546;28;20037;-71
2022/05/13 08:13:29;;;;;;;2.85;2.20;;;;;;;23.38;49.61;100915.97;5015048;28;20056;-71
2022/05/13 08:15:54;;;;;;;5.60;2.00;;;;;;;23.38;49.33;100917.81;5004801;28;20038;-72
2022/05/13 08:18:21;;;;;;;4.40;1.80;;;;;;;23.38;49.03;100915.97;5008166;28;20095;-72
2022/05/13 08:20:48;;;;;;;7.63;1.98;;;;;;;23.38;49.48;100910.66;5007530;28;20488;-71
2022/05/13 08:23:13;;;;;;;8.27;2.10;;;;;;;23.38;49.38;100915.97;5006566;28;20034;-71
2022/05/13 08:25:39;;;;;;;4.13;1.77;;;;;;;23.39;49.17;100911.47;5004779;28;20065;-71
2022/05/13 08:28:06;;;;;;;3.38;1.60;;;;;;;23.40;49.03;100913.09;5001708;28;20034;-73
2022/05/13 08:30:32;;;;;;;5.75;2.03;;;;;;;23.41;49.07;100915.53;5005138;28;20021;-72
2022/05/13 08:33:01;;;;;;;4.38;2.13;;;;;;;23.41;48.79;100917.38;5002544;28;20606;-73
2022/05/13 08:35:27;;;;;;;5.15;1.48;;;;;;;23.41;48.90;100915.53;5008387;28;20037;-71
2022/05/13 08:37:54;;;;;;;4.38;1.65;;;;;;;23.41;48.77;100917.38;5008786;28;20033;-74
2022/05/13 08:40:50;;;;;;;3.65;1.83;;;;;;;23.38;48.88;100915.97;5008120;28;20032;-72
2022/05/13 08:43:23;;;;;;;2.47;1.40;;;;;;;23.37;48.78;100922.31;5007320;28;20386;-73
2022/05/13 08:45:53;;;;;;;4.40;1.90;;;;;;;23.39;48.61;100922.09;5006561;28;20034;-72
2022/05/13 08:48:30;;;;;;;5.15;1.80;;;;;;;23.37;48.73;100919.66;5007172;28;20034;-70
2022/05/13 08:51:15;;;;;;;6.50;1.38;;;;;;;23.37;48.78;100922.31;5007079;28;20075;-70
2022/05/13 08:53:41;;;;;;;;;;;;;;;23.29;48.95;100916.44;5008692;28;20077;-71
2022/05/13 08:56:10;;;;;;;2.05;0.90;;;;;;;23.33;49.01;100915.00;5008255;28;19921;-72
2022/05/13 08:58:54;;;;;;;1.40;1.13;;;;;;;23.34;48.63;100920.09;5006654;28;20045;-70
2022/05/13 09:01:26;;;;;;;2.13;1.20;;;;;;;23.36;48.78;100915.38;4990009;28;20593;-73
2022/05/13 09:03:59;;;;;;;1.55;1.13;;;;;;;23.38;48.67;100923.94;5007550;28;20540;-71
2022/05/13 09:06:24;;;;;;;4.28;1.42;;;;;;;23.38;48.02;100921.28;5008196;28;20033;-71
2022/05/13 09:08:50;;;;;;;2.40;1.70;;;;;;;23.39;48.14;100922.09;5006868;28;20348;-71
2022/05/13 09:11:30;;;;;;;3.83;1.30;;;;;;;23.38;47.93;100921.28;5008189;28;20034;-71
2022/05/13 09:14:15;;;;;;;2.42;1.23;;;;;;;23.36;47.67;100920.69;5008035;28;20038;-73
2022/05/13 09:17:11;;;;;;;4.05;1.77;;;;;;;23.36;47.55;100911.91;5007958;28;20493;-71
2022/05/13 09:19:44;;;;;;;2.90;1.40;;;;;;;23.35;47.60;100920.91;5010798;28;20033;-70
2022/05/13 09:22:12;;;;;;;5.25;1.45;;;;;;;23.36;47.34;100911.91;5011571;28;20065;-73
2022/05/13 09:24:39;;;;;;;2.63;1.50;;;;;;;23.37;47.72;100910.88;5012138;28;20072;-72
2022/05/13 09:27:04;;;;;;;3.70;1.50;;;;;;;23.37;47.72;100911.69;5011810;28;20060;-73
2022/05/13 09:29:45;;;;;;;1.58;1.33;;;;;;;23.35;47.46;100905.78;5010659;28;20573;-71
2022/05/13 09:32:22;;;;;;;2.95;1.33;;;;;;;23.35;47.58;100903.09;5011734;28;20029;-72
2022/05/13 09:35:07;;;;;;;2.38;1.17;;;;;;;23.35;47.51;100903.09;5010860;28;20034;-70
2022/05/13 09:37:39;;;;;;;3.42;1.77;;;;;;;23.33;47.12;100907.00;5011838;28;20216;-72
2022/05/13 09:40:07;;;;;;;4.25;1.58;;;;;;;23.34;47.09;100904.13;5010276;28;20040;-71
2022/05/13 09:42:42;;;;;;;3.05;1.63;;;;;;;23.34;47.00;100898.00;5011434;28;20037;-73
2022/05/13 09:45:23;;;;;;;5.10;1.30;;;;;;;23.32;47.24;100900.88;5011345;28;20121;-71
2022/05/13 09:47:59;;;;;;;2.67;1.80;;;;;;;23.31;47.27;100903.75;5010346;28;20065;-72
2022/05/13 09:50:29;;;;;;;5.05;2.13;;;;;;;23.33;47.42;100902.50;5010505;28;20398;-72
2022/05/13 09:53:05;;;;;;;3.13;1.40;;;;;;;23.34;47.25;100898.81;5011339;28;20053;-71
2022/05/13 09:55:34;;;;;;;4.32;1.42;;;;;;;23.35;47.48;100889.81;5011491;28;20054;-72
2022/05/13 09:58:02;;;;;;;3.72;1.30;;;;;;;23.37;47.78;100892.25;5011119;28;20033;-73
2022/05/13 10:00:31;;;;;;;5.00;1.40;;;;;;;23.39;47.50;100888.34;5009624;28;20513;-73
2022/05/13 10:03:19;;;;;;;4.22;1.52;;;;;;;23.37;47.44;100879.78;5011756;28;20029;-73
2022/05/13 10:06:08;;;;;;;5.82;2.00;;;;;;;23.38;47.68;100884.06;5012917;28;20044;-72
2022/05/13 10:08:37;;;;;;;3.95;1.52;;;;;;;23.39;47.84;100883.03;5017067;28;20029;-71
2022/05/13 10:14:00;;;;;;;1.60;1.23;;;;;;;23.42;47.81;100879.94;5019637;28;20052;-73
2022/05/13 10:16:28;;;;;;;5.25;2.20;;;;;;;23.45;47.76;100882.16;5017424;28;20030;-72
2022/05/13 10:19:05;;;;;;;3.67;1.52;;;;;;;23.45;47.44;100870.72;5007125;28;20030;-73
2022/05/13 10:22:00;;;;;;;2.60;1.60;;;;;;;23.43;47.53;100868.28;4995582;28;20038;-72
2022/05/13 10:24:26;;;;;;;4.33;1.73;;;;;;;23.43;47.71;100860.28;4997387;28;20353;-71
2022/05/13 10:26:52;;;;;;;3.65;1.60;;;;;;;23.44;48.11;100859.25;5010539;28;20291;-72
2022/05/13 10:29:37;;;;;;;3.40;1.65;;;;;;;23.41;48.01;100857.03;5008077;28;20494;-73
2022/05/13 10:32:24;;;;;;;4.43;1.27;;;;;;;23.43;47.95;100847.00;5010534;28;20068;-72
2022/05/13 10:34:54;;;;;;;3.03;1.52;;;;;;;23.42;48.23;100849.88;5009670;28;20386;-71
2022/05/13 10:37:22;;;;;;;3.13;1.77;;;;;;;23.43;47.96;100844.34;5010544;28;20026;-73
2022/05/13 10:39:53;;;;;;;2.60;1.75;;;;;;;23.42;48.05;100848.03;5009480;28;20045;-72
2022/05/13 10:42:25;;;;;;;8.43;1.70;;;;;;;23.43;47.84;100838.22;5010854;28;20157;-71
2022/05/13 10:45:10;;;;;;;4.22;1.70;;;;;;;23.42;47.75;100836.59;5010600;28;20117;-74
2022/05/13 10:47:46;;;;;;;7.32;1.73;;;;;;;23.42;47.81;100832.06;5010321;28;20463;-72
2022/05/13 10:50:23;;;;;;;4.68;1.38;;;;;;;23.42;47.75;100828.59;5008913;28;20041;-72
2022/05/13 10:53:10;;;;;;;2.72;1.40;;;;;;;23.41;47.77;100825.13;5010473;28;20109;-73
2022/05/13 10:56:14;;;;;;;5.00;1.90;;;;;;;23.42;47.81;100823.28;5010250;28;20042;-71
2022/05/13 10:59:05;;;;;;;4.72;1.30;;;;;;;23.42;47.62;100816.13;5009791;28;20108;-74
2022/05/13 11:01:39;;;;;;;3.58;1.40;;;;;;;23.45;47.53;100815.69;5009825;28;20034;-72
2022/05/13 11:04:16;;;;;;;2.47;1.45;;;;;;;23.45;47.53;100814.88;5008861;28;20046;-71
2022/05/13 11:07:00;;;;;;;3.30;1.33;;;;;;;23.46;47.48;100811.19;5010123;28;20026;-72
2022/05/13 11:09:37;;;;;;;3.30;1.50;;;;;;;23.47;47.71;100813.63;5010380;28;20037;-72
2022/05/13 11:12:35;;;;;;;2.50;1.38;;;;;;;23.45;47.71;100807.72;5008832;28;20046;-72
2022/05/13 11:15:20;;;;;;;2.55;1.20;;;;;;;23.45;47.59;100807.72;4948826;28;20162;-71
2022/05/13 11:17:53;;;;;;;3.60;1.42;;;;;;;23.47;47.63;100802.16;4948829;29;20035;-73
2022/05/13 11:20:28;;;;;;;2.30;1.30;;;;;;;23.49;47.68;100800.91;4947555;29;20078;-73
2022/05/13 11:23:12;;;;;;;2.85;1.48;;;;;;;23.46;47.68;100796.03;4946575;28;20069;-72
2022/05/13 11:26:06;;;;;;;3.45;1.50;;;;;;;23.47;47.74;100792.34;4947366;29;20045;-74
2022/05/13 11:28:54;;;;;;;4.65;1.25;;;;;;;23.48;47.57;100780.69;4948561;28;20039;-71
2022/05/13 11:31:41;;;;;;;3.58;1.65;;;;;;;23.49;47.76;100784.97;4947119;29;20122;-71
2022/05/13 11:34:26;;;;;;;3.33;1.17;;;;;;;23.47;47.86;100779.06;4948437;29;20458;-72
2022/05/13 11:36:58;;;;;;;3.97;1.50;;;;;;;23.48;47.77;100780.69;4931212;29;20507;-73
2022/05/13 11:39:42;;;;;;;4.25;1.60;;;;;;;23.49;48.18;100784.97;4948674;28;20563;-72
2022/05/13 11:42:17;;;;;;;1.92;1.10;;;;;;;23.49;47.72;100773.50;4946876;29;20117;-73
2022/05/13 11:44:42;;;;;;;3.05;1.42;;;;;;;23.50;48.01;100765.31;4946405;28;20051;-71
2022/05/13 11:47:22;;;;;;;4.00;1.50;;;;;;;23.50;48.02;100775.13;4948025;28;20102;-71
2022/05/13 11:49:49;;;;;;;2.42;1.42;;;;;;;23.53;48.05;100765.91;4946726;29;20094;-71
2022/05/13 11:52:14;;;;;;;2.05;1.17;;;;;;;23.55;47.73;100774.50;5003711;28;20049;-71
2022/05/13 11:54:42;;;;;;;2.45;1.42;;;;;;;23.56;48.16;100768.16;5008096;28;20033;-74
2022/05/13 11:57:18;;;;;;;4.57;2.05;;;;;;;23.60;48.72;100767.50;5007052;28;20789;-72
2022/05/13 11:59:50;;;;;;;9.43;2.33;;;;;;;23.72;50.44;100757.69;5014130;28;20057;-72
2022/05/13 12:02:50;;;;;;;124.35;23.75;;;;;;;23.95;53.96;100757.00;5020761;28;20029;-71